sensor_id;sensor_type;location;lat;lon;timestamp;temperature;humidity
71291;DHT22;59073;51.994;4.448;2023-05-23T00:00:20;12.91;90.41
71291;DHT22;59073;51.994;4.448;2023-05-23T00:02:46;12.95;90.55
71291;DHT22;59073;51.994;4.448;2023-05-23T00:05:12;12.95;90.33
71291;DHT22;59073;51.994;4.448;2023-05-23T00:07:39;13.00;90.68
71291;DHT22;59073;51.994;4.448;2023-05-23T00:10:05;13.11;90.26
71291;DHT22;59073;51.994;4.448;2023-05-23T00:12:31;13.05;90.08
71291;DHT22;59073;51.994;4.448;2023-05-23T00:14:58;13.15;90.01
71291;DHT22;59073;51.994;4.448;2023-05-23T00:17:23;13.10;89.65
71291;DHT22;59073;51.994;4.448;2023-05-23T00:19:49;13.07;89.69
71291;DHT22;59073;51.994;4.448;2023-05-23T00:22:15;13.14;89.53
71291;DHT22;59073;51.994;4.448;2023-05-23T00:24:42;13.15;89.36
71291;DHT22;59073;51.994;4.448;2023-05-23T00:27:07;13.21;89.17
71291;DHT22;59073;51.994;4.448;2023-05-23T00:29:33;13.25;89.27
71291;DHT22;59073;51.994;4.448;2023-05-23T00:31:58;13.38;89.36
71291;DHT22;59073;51.994;4.448;2023-05-23T00:34:23;13.35;89.30
71291;DHT22;59073;51.994;4.448;2023-05-23T00:36:49;13.26;89.92
71291;DHT22;59073;51.994;4.448;2023-05-23T00:39:15;13.32;89.81
71291;DHT22;59073;51.994;4.448;2023-05-23T00:41:50;13.38;89.88
71291;DHT22;59073;51.994;4.448;2023-05-23T00:44:16;13.34;89.84
71291;DHT22;59073;51.994;4.448;2023-05-23T00:46:44;13.31;90.10
71291;DHT22;59073;51.994;4.448;2023-05-23T00:49:11;13.16;90.26
71291;DHT22;59073;51.994;4.448;2023-05-23T00:51:37;13.19;90.58
71291;DHT22;59073;51.994;4.448;2023-05-23T00:54:03;13.23;90.02
71291;DHT22;59073;51.994;4.448;2023-05-23T00:56:30;13.38;89.77
71291;DHT22;59073;51.994;4.448;2023-05-23T00:58:55;13.48;89.29
71291;DHT22;59073;51.994;4.448;2023-05-23T01:01:21;13.45;88.92
71291;DHT22;59073;51.994;4.448;2023-05-23T01:03:46;13.53;89.12
71291;DHT22;59073;51.994;4.448;2023-05-23T01:06:14;13.53;88.62
71291;DHT22;59073;51.994;4.448;2023-05-23T01:08:41;13.63;88.27
71291;DHT22;59073;51.994;4.448;2023-05-23T01:11:29;13.62;87.88
71291;DHT22;59073;51.994;4.448;2023-05-23T01:14:07;13.79;87.59
71291;DHT22;59073;51.994;4.448;2023-05-23T01:16:47;13.70;86.67
71291;DHT22;59073;51.994;4.448;2023-05-23T01:19:48;13.84;86.16
71291;DHT22;59073;51.994;4.448;2023-05-23T01:28:28;13.66;85.35
71291;DHT22;59073;51.994;4.448;2023-05-23T01:30:57;13.65;84.75
71291;DHT22;59073;51.994;4.448;2023-05-23T01:33:27;13.60;84.92
71291;DHT22;59073;51.994;4.448;2023-05-23T01:35:57;13.66;84.83
71291;DHT22;59073;51.994;4.448;2023-05-23T01:38:24;13.65;84.60
71291;DHT22;59073;51.994;4.448;2023-05-23T01:40:49;13.69;84.38
71291;DHT22;59073;51.994;4.448;2023-05-23T01:43:15;13.67;84.62
71291;DHT22;59073;51.994;4.448;2023-05-23T01:45:42;13.73;84.23
71291;DHT22;59073;51.994;4.448;2023-05-23T01:48:08;13.77;84.51
71291;DHT22;59073;51.994;4.448;2023-05-23T01:50:36;13.66;84.06
71291;DHT22;59073;51.994;4.448;2023-05-23T01:53:03;13.66;84.15
71291;DHT22;59073;51.994;4.448;2023-05-23T01:55:29;13.69;83.94
71291;DHT22;59073;51.994;4.448;2023-05-23T01:57:56;13.74;83.97
71291;DHT22;59073;51.994;4.448;2023-05-23T02:00:22;13.89;84.10
71291;DHT22;59073;51.994;4.448;2023-05-23T02:02:48;13.89;83.74
71291;DHT22;59073;51.994;4.448;2023-05-23T02:05:14;13.80;83.48
71291;DHT22;59073;51.994;4.448;2023-05-23T02:07:39;13.91;83.40
71291;DHT22;59073;51.994;4.448;2023-05-23T02:10:07;13.81;83.31
71291;DHT22;59073;51.994;4.448;2023-05-23T02:12:33;13.79;83.54
71291;DHT22;59073;51.994;4.448;2023-05-23T02:14:58;13.60;83.36
71291;DHT22;59073;51.994;4.448;2023-05-23T02:17:23;13.70;83.32
71291;DHT22;59073;51.994;4.448;2023-05-23T02:19:49;13.62;83.07
71291;DHT22;59073;51.994;4.448;2023-05-23T02:22:15;13.62;83.26
71291;DHT22;59073;51.994;4.448;2023-05-23T02:24:40;13.62;83.49
71291;DHT22;59073;51.994;4.448;2023-05-23T02:27:06;13.67;83.19
71291;DHT22;59073;51.994;4.448;2023-05-23T02:29:31;13.58;83.07
71291;DHT22;59073;51.994;4.448;2023-05-23T02:31:57;13.50;83.29
71291;DHT22;59073;51.994;4.448;2023-05-23T02:34:22;13.46;83.49
71291;DHT22;59073;51.994;4.448;2023-05-23T02:36:48;13.42;83.32
71291;DHT22;59073;51.994;4.448;2023-05-23T02:39:13;13.43;83.52
71291;DHT22;59073;51.994;4.448;2023-05-23T02:41:39;13.52;83.71
71291;DHT22;59073;51.994;4.448;2023-05-23T02:44:04;13.45;83.41
71291;DHT22;59073;51.994;4.448;2023-05-23T02:46:30;13.48;83.69
71291;DHT22;59073;51.994;4.448;2023-05-23T02:48:55;13.36;83.67
71291;DHT22;59073;51.994;4.448;2023-05-23T02:51:21;13.41;83.81
71291;DHT22;59073;51.994;4.448;2023-05-23T02:53:46;13.32;83.49
71291;DHT22;59073;51.994;4.448;2023-05-23T02:56:11;13.34;83.75
71291;DHT22;59073;51.994;4.448;2023-05-23T02:58:37;13.36;83.31
71291;DHT22;59073;51.994;4.448;2023-05-23T03:01:04;13.39;82.79
71291;DHT22;59073;51.994;4.448;2023-05-23T03:03:30;13.41;83.02
71291;DHT22;59073;51.994;4.448;2023-05-23T03:05:56;13.32;82.95
71291;DHT22;59073;51.994;4.448;2023-05-23T03:08:23;13.38;83.49
71291;DHT22;59073;51.994;4.448;2023-05-23T03:10:48;13.28;83.36
71291;DHT22;59073;51.994;4.448;2023-05-23T03:13:13;13.28;83.74
71291;DHT22;59073;51.994;4.448;2023-05-23T03:15:39;13.36;83.48
71291;DHT22;59073;51.994;4.448;2023-05-23T03:18:04;13.49;82.84
71291;DHT22;59073;51.994;4.448;2023-05-23T03:20:30;13.32;83.10
71291;DHT22;59073;51.994;4.448;2023-05-23T03:22:55;13.21;82.88
71291;DHT22;59073;51.994;4.448;2023-05-23T03:25:20;13.19;83.06
71291;DHT22;59073;51.994;4.448;2023-05-23T03:27:46;13.18;83.25
71291;DHT22;59073;51.994;4.448;2023-05-23T03:30:11;13.07;82.66
71291;DHT22;59073;51.994;4.448;2023-05-23T03:32:37;13.14;82.23
71291;DHT22;59073;51.994;4.448;2023-05-23T03:35:02;12.95;81.84
71291;DHT22;59073;51.994;4.448;2023-05-23T03:37:28;13.01;80.96
71291;DHT22;59073;51.994;4.448;2023-05-23T03:39:53;13.04;81.17
71291;DHT22;59073;51.994;4.448;2023-05-23T03:42:18;12.92;80.97
71291;DHT22;59073;51.994;4.448;2023-05-23T03:44:44;12.94;80.95
71291;DHT22;59073;51.994;4.448;2023-05-23T03:47:09;12.95;81.05
71291;DHT22;59073;51.994;4.448;2023-05-23T03:49:35;13.05;81.31
71291;DHT22;59073;51.994;4.448;2023-05-23T03:52:00;12.95;80.98
71291;DHT22;59073;51.994;4.448;2023-05-23T03:54:26;12.90;81.47
71291;DHT22;59073;51.994;4.448;2023-05-23T03:56:51;12.85;81.18
71291;DHT22;59073;51.994;4.448;2023-05-23T03:59:17;12.78;80.78
71291;DHT22;59073;51.994;4.448;2023-05-23T04:01:43;12.73;80.44
71291;DHT22;59073;51.994;4.448;2023-05-23T04:04:08;12.68;80.25
71291;DHT22;59073;51.994;4.448;2023-05-23T04:06:33;12.73;80.22
71291;DHT22;59073;51.994;4.448;2023-05-23T04:08:59;12.80;79.80
71291;DHT22;59073;51.994;4.448;2023-05-23T04:11:25;12.83;79.95
71291;DHT22;59073;51.994;4.448;2023-05-23T04:13:50;12.77;79.80
71291;DHT22;59073;51.994;4.448;2023-05-23T04:16:16;12.74;80.29
71291;DHT22;59073;51.994;4.448;2023-05-23T04:18:42;12.73;80.34
71291;DHT22;59073;51.994;4.448;2023-05-23T04:21:07;12.71;80.56
71291;DHT22;59073;51.994;4.448;2023-05-23T04:23:33;12.73;80.63
71291;DHT22;59073;51.994;4.448;2023-05-23T04:25:58;12.87;80.48
71291;DHT22;59073;51.994;4.448;2023-05-23T04:28:25;12.68;79.33
71291;DHT22;59073;51.994;4.448;2023-05-23T04:30:51;12.73;78.90
71291;DHT22;59073;51.994;4.448;2023-05-23T04:33:17;12.76;78.31
71291;DHT22;59073;51.994;4.448;2023-05-23T04:35:43;12.73;78.00
71291;DHT22;59073;51.994;4.448;2023-05-23T04:38:08;12.83;79.05
71291;DHT22;59073;51.994;4.448;2023-05-23T04:40:34;12.76;79.42
71291;DHT22;59073;51.994;4.448;2023-05-23T04:43:00;12.81;80.10
71291;DHT22;59073;51.994;4.448;2023-05-23T04:45:25;12.68;80.03
71291;DHT22;59073;51.994;4.448;2023-05-23T04:47:51;12.67;79.96
71291;DHT22;59073;51.994;4.448;2023-05-23T04:50:19;12.63;79.26
71291;DHT22;59073;51.994;4.448;2023-05-23T04:52:47;12.73;78.67
71291;DHT22;59073;51.994;4.448;2023-05-23T04:55:12;12.81;77.27
71291;DHT22;59073;51.994;4.448;2023-05-23T04:57:37;12.81;77.61
71291;DHT22;59073;51.994;4.448;2023-05-23T05:00:04;12.84;76.14
71291;DHT22;59073;51.994;4.448;2023-05-23T05:02:36;12.87;76.80
71291;DHT22;59073;51.994;4.448;2023-05-23T05:05:02;12.84;77.41
71291;DHT22;59073;51.994;4.448;2023-05-23T05:07:29;12.74;77.10
71291;DHT22;59073;51.994;4.448;2023-05-23T05:09:54;12.60;77.01
71291;DHT22;59073;51.994;4.448;2023-05-23T05:12:20;12.67;77.41
71291;DHT22;59073;51.994;4.448;2023-05-23T05:14:45;12.54;77.54
71291;DHT22;59073;51.994;4.448;2023-05-23T05:17:11;12.60;77.47
71291;DHT22;59073;51.994;4.448;2023-05-23T05:19:37;12.47;77.36
71291;DHT22;59073;51.994;4.448;2023-05-23T05:22:03;12.61;78.10
71291;DHT22;59073;51.994;4.448;2023-05-23T05:24:29;12.64;77.45
71291;DHT22;59073;51.994;4.448;2023-05-23T05:26:55;12.70;76.80
71291;DHT22;59073;51.994;4.448;2023-05-23T05:29:20;12.64;76.33
71291;DHT22;59073;51.994;4.448;2023-05-23T05:31:46;12.63;77.29
71291;DHT22;59073;51.994;4.448;2023-05-23T05:34:11;12.57;77.77
71291;DHT22;59073;51.994;4.448;2023-05-23T05:36:38;12.57;78.39
71291;DHT22;59073;51.994;4.448;2023-05-23T05:39:10;12.57;78.61
71291;DHT22;59073;51.994;4.448;2023-05-23T05:41:36;12.56;79.07
71291;DHT22;59073;51.994;4.448;2023-05-23T05:44:01;12.59;79.06
71291;DHT22;59073;51.994;4.448;2023-05-23T05:46:26;12.60;79.44
71291;DHT22;59073;51.994;4.448;2023-05-23T05:48:52;12.50;79.75
71291;DHT22;59073;51.994;4.448;2023-05-23T05:51:17;12.43;80.37
71291;DHT22;59073;51.994;4.448;2023-05-23T05:53:43;12.51;80.71
71291;DHT22;59073;51.994;4.448;2023-05-23T05:56:08;12.44;80.95
71291;DHT22;59073;51.994;4.448;2023-05-23T05:58:33;12.49;80.88
71291;DHT22;59073;51.994;4.448;2023-05-23T06:00:59;12.50;81.38
71291;DHT22;59073;51.994;4.448;2023-05-23T06:03:24;12.49;80.44
71291;DHT22;59073;51.994;4.448;2023-05-23T06:05:51;12.56;80.64
71291;DHT22;59073;51.994;4.448;2023-05-23T06:08:16;12.53;80.23
71291;DHT22;59073;51.994;4.448;2023-05-23T06:10:42;12.43;80.83
71291;DHT22;59073;51.994;4.448;2023-05-23T06:13:07;12.46;80.73
71291;DHT22;59073;51.994;4.448;2023-05-23T06:15:33;12.64;81.19
71291;DHT22;59073;51.994;4.448;2023-05-23T06:17:58;12.70;80.69
71291;DHT22;59073;51.994;4.448;2023-05-23T06:20:23;12.49;80.22
71291;DHT22;59073;51.994;4.448;2023-05-23T06:22:49;12.50;80.93
71291;DHT22;59073;51.994;4.448;2023-05-23T06:25:14;12.64;81.12
71291;DHT22;59073;51.994;4.448;2023-05-23T06:27:40;12.73;80.56
71291;DHT22;59073;51.994;4.448;2023-05-23T06:30:06;12.44;80.56
71291;DHT22;59073;51.994;4.448;2023-05-23T06:32:31;12.44;80.58
71291;DHT22;59073;51.994;4.448;2023-05-23T06:34:57;12.39;80.30
71291;DHT22;59073;51.994;4.448;2023-05-23T06:37:23;12.49;80.38
71291;DHT22;59073;51.994;4.448;2023-05-23T06:39:49;12.46;79.79
71291;DHT22;59073;51.994;4.448;2023-05-23T06:42:14;12.41;79.76
71291;DHT22;59073;51.994;4.448;2023-05-23T06:44:40;12.53;79.61
71291;DHT22;59073;51.994;4.448;2023-05-23T06:47:06;12.61;78.89
71291;DHT22;59073;51.994;4.448;2023-05-23T06:49:31;12.59;78.12
71291;DHT22;59073;51.994;4.448;2023-05-23T06:51:56;12.59;78.46
71291;DHT22;59073;51.994;4.448;2023-05-23T06:54:22;13.01;76.82
71291;DHT22;59073;51.994;4.448;2023-05-23T06:56:47;13.38;76.13
71291;DHT22;59073;51.994;4.448;2023-05-23T06:59:13;13.67;75.18
71291;DHT22;59073;51.994;4.448;2023-05-23T07:01:38;13.99;73.05
71291;DHT22;59073;51.994;4.448;2023-05-23T07:04:03;13.70;72.79
71291;DHT22;59073;51.994;4.448;2023-05-23T07:06:29;13.46;73.92
71291;DHT22;59073;51.994;4.448;2023-05-23T07:08:55;13.86;72.99
71291;DHT22;59073;51.994;4.448;2023-05-23T07:11:21;13.53;71.48
71291;DHT22;59073;51.994;4.448;2023-05-23T07:13:46;13.59;72.00
71291;DHT22;59073;51.994;4.448;2023-05-23T07:16:12;13.59;70.69
71291;DHT22;59073;51.994;4.448;2023-05-23T07:18:37;13.67;70.62
71291;DHT22;59073;51.994;4.448;2023-05-23T07:21:03;13.45;70.43
71291;DHT22;59073;51.994;4.448;2023-05-23T07:23:31;13.32;70.52
71291;DHT22;59073;51.994;4.448;2023-05-23T07:25:56;13.49;70.65
71291;DHT22;59073;51.994;4.448;2023-05-23T07:28:22;13.32;70.41
71291;DHT22;59073;51.994;4.448;2023-05-23T07:30:47;13.26;70.31
71291;DHT22;59073;51.994;4.448;2023-05-23T07:33:12;13.66;69.84
71291;DHT22;59073;51.994;4.448;2023-05-23T07:35:38;13.86;70.01
71291;DHT22;59073;51.994;4.448;2023-05-23T07:38:04;13.99;68.51
71291;DHT22;59073;51.994;4.448;2023-05-23T07:40:29;14.13;68.11
71291;DHT22;59073;51.994;4.448;2023-05-23T07:42:54;14.65;68.09
71291;DHT22;59073;51.994;4.448;2023-05-23T07:45:20;14.25;67.44
71291;DHT22;59073;51.994;4.448;2023-05-23T07:47:46;13.97;68.22
71291;DHT22;59073;51.994;4.448;2023-05-23T07:50:11;14.16;68.42
71291;DHT22;59073;51.994;4.448;2023-05-23T07:52:37;14.17;68.47
71291;DHT22;59073;51.994;4.448;2023-05-23T07:55:03;14.31;68.17
71291;DHT22;59073;51.994;4.448;2023-05-23T07:57:29;13.99;68.35
71291;DHT22;59073;51.994;4.448;2023-05-23T07:59:54;14.22;67.64
71291;DHT22;59073;51.994;4.448;2023-05-23T08:02:20;13.91;68.40
71291;DHT22;59073;51.994;4.448;2023-05-23T08:04:46;14.22;67.02
71291;DHT22;59073;51.994;4.448;2023-05-23T08:07:12;14.52;67.11
71291;DHT22;59073;51.994;4.448;2023-05-23T08:09:38;14.14;67.18
71291;DHT22;59073;51.994;4.448;2023-05-23T08:12:07;14.32;68.63
71291;DHT22;59073;51.994;4.448;2023-05-23T08:14:34;14.24;67.16
71291;DHT22;59073;51.994;4.448;2023-05-23T08:17:00;14.41;67.00
71291;DHT22;59073;51.994;4.448;2023-05-23T08:19:25;14.34;67.64
71291;DHT22;59073;51.994;4.448;2023-05-23T08:21:51;14.24;68.80
71291;DHT22;59073;51.994;4.448;2023-05-23T08:24:18;14.17;67.58
71291;DHT22;59073;51.994;4.448;2023-05-23T08:26:44;14.35;67.89
71291;DHT22;59073;51.994;4.448;2023-05-23T08:29:10;14.48;67.10
71291;DHT22;59073;51.994;4.448;2023-05-23T08:31:35;14.04;67.64
71291;DHT22;59073;51.994;4.448;2023-05-23T08:34:00;14.59;65.98
71291;DHT22;59073;51.994;4.448;2023-05-23T08:36:26;14.40;66.34
71291;DHT22;59073;51.994;4.448;2023-05-23T08:38:51;14.85;66.33
71291;DHT22;59073;51.994;4.448;2023-05-23T08:41:20;15.02;65.20
71291;DHT22;59073;51.994;4.448;2023-05-23T08:43:45;14.85;64.45
71291;DHT22;59073;51.994;4.448;2023-05-23T08:46:12;14.76;65.58
71291;DHT22;59073;51.994;4.448;2023-05-23T08:48:38;14.88;64.80
71291;DHT22;59073;51.994;4.448;2023-05-23T08:51:06;14.85;65.04
71291;DHT22;59073;51.994;4.448;2023-05-23T08:53:35;14.52;64.95
71291;DHT22;59073;51.994;4.448;2023-05-23T08:56:02;14.44;66.56
71291;DHT22;59073;51.994;4.448;2023-05-23T08:58:29;14.96;65.14
71291;DHT22;59073;51.994;4.448;2023-05-23T09:00:57;14.71;66.97
71291;DHT22;59073;51.994;4.448;2023-05-23T09:03:25;14.52;67.00
71291;DHT22;59073;51.994;4.448;2023-05-23T09:05:53;14.16;66.81
71291;DHT22;59073;51.994;4.448;2023-05-23T09:08:19;14.76;67.53
71291;DHT22;59073;51.994;4.448;2023-05-23T09:10:47;14.64;66.99
71291;DHT22;59073;51.994;4.448;2023-05-23T09:13:14;14.52;68.29
71291;DHT22;59073;51.994;4.448;2023-05-23T09:15:55;14.81;65.88
71291;DHT22;59073;51.994;4.448;2023-05-23T09:18:24;15.18;64.79
71291;DHT22;59073;51.994;4.448;2023-05-23T09:20:50;15.02;64.92
71291;DHT22;59073;51.994;4.448;2023-05-23T09:23:15;15.68;65.53
71291;DHT22;59073;51.994;4.448;2023-05-23T09:25:47;16.04;64.45
71291;DHT22;59073;51.994;4.448;2023-05-23T09:28:13;15.34;64.06
71291;DHT22;59073;51.994;4.448;2023-05-23T09:30:38;14.90;64.00
71291;DHT22;59073;51.994;4.448;2023-05-23T09:33:04;14.83;64.45
71291;DHT22;59073;51.994;4.448;2023-05-23T09:35:30;14.85;66.17
71291;DHT22;59073;51.994;4.448;2023-05-23T09:37:57;15.02;66.07
71291;DHT22;59073;51.994;4.448;2023-05-23T09:40:32;14.81;67.12
71291;DHT22;59073;51.994;4.448;2023-05-23T09:43:04;14.92;65.41
71291;DHT22;59073;51.994;4.448;2023-05-23T09:45:31;15.55;66.11
71291;DHT22;59073;51.994;4.448;2023-05-23T09:47:57;15.39;64.14
71291;DHT22;59073;51.994;4.448;2023-05-23T09:50:25;15.07;64.93
71291;DHT22;59073;51.994;4.448;2023-05-23T09:52:54;14.71;65.39
71291;DHT22;59073;51.994;4.448;2023-05-23T09:55:20;14.65;65.64
71291;DHT22;59073;51.994;4.448;2023-05-23T09:57:52;14.64;66.94
71291;DHT22;59073;51.994;4.448;2023-05-23T10:00:19;14.88;65.68
71291;DHT22;59073;51.994;4.448;2023-05-23T10:03:10;14.90;65.46
71291;DHT22;59073;51.994;4.448;2023-05-23T10:05:49;15.10;65.40
71291;DHT22;59073;51.994;4.448;2023-05-23T10:08:37;15.24;64.14
71291;DHT22;59073;51.994;4.448;2023-05-23T10:13:48;15.72;62.58
71291;DHT22;59073;51.994;4.448;2023-05-23T10:16:30;15.90;61.65
71291;DHT22;59073;51.994;4.448;2023-05-23T10:19:05;15.44;62.84
71291;DHT22;59073;51.994;4.448;2023-05-23T10:21:39;15.40;65.81
71291;DHT22;59073;51.994;4.448;2023-05-23T10:24:10;15.18;65.47
71291;DHT22;59073;51.994;4.448;2023-05-23T10:26:36;15.26;66.58
71291;DHT22;59073;51.994;4.448;2023-05-23T10:29:02;15.53;67.37
71291;DHT22;59073;51.994;4.448;2023-05-23T10:31:28;15.36;66.01
71291;DHT22;59073;51.994;4.448;2023-05-23T10:34:22;15.13;67.41
71291;DHT22;59073;51.994;4.448;2023-05-23T10:37:03;14.24;68.83
71291;DHT22;59073;51.994;4.448;2023-05-23T10:39:40;14.46;67.77
71291;DHT22;59073;51.994;4.448;2023-05-23T10:42:15;14.41;69.08
71291;DHT22;59073;51.994;4.448;2023-05-23T10:44:41;14.54;69.78
71291;DHT22;59073;51.994;4.448;2023-05-23T10:47:06;15.16;66.41
71291;DHT22;59073;51.994;4.448;2023-05-23T10:49:41;14.96;66.10
71291;DHT22;59073;51.994;4.448;2023-05-23T10:52:08;14.76;67.58
71291;DHT22;59073;51.994;4.448;2023-05-23T10:54:35;14.42;67.79
71291;DHT22;59073;51.994;4.448;2023-05-23T10:57:04;14.75;68.75
71291;DHT22;59073;51.994;4.448;2023-05-23T10:59:30;15.40;65.94
71291;DHT22;59073;51.994;4.448;2023-05-23T11:01:56;15.90;65.35
71291;DHT22;59073;51.994;4.448;2023-05-23T11:04:26;15.39;63.97
71291;DHT22;59073;51.994;4.448;2023-05-23T11:06:54;14.83;65.28
71291;DHT22;59073;51.994;4.448;2023-05-23T11:09:20;15.06;65.56
71291;DHT22;59073;51.994;4.448;2023-05-23T11:11:58;15.27;63.80
71291;DHT22;59073;51.994;4.448;2023-05-23T11:19:53;15.13;63.49
71291;DHT22;59073;51.994;4.448;2023-05-23T11:22:20;15.07;63.84
71291;DHT22;59073;51.994;4.448;2023-05-23T11:27:14;15.54;60.21
71291;DHT22;59073;51.994;4.448;2023-05-23T11:29:39;15.64;60.41
71291;DHT22;59073;51.994;4.448;2023-05-23T11:32:11;15.30;61.22
71291;DHT22;59073;51.994;4.448;2023-05-23T11:34:40;15.41;59.33
71291;DHT22;59073;51.994;4.448;2023-05-23T11:37:06;15.54;60.75
71291;DHT22;59073;51.994;4.448;2023-05-23T11:39:32;15.50;62.55
71291;DHT22;59073;51.994;4.448;2023-05-23T11:42:02;15.03;62.96
71291;DHT22;59073;51.994;4.448;2023-05-23T11:44:28;15.16;64.06
71291;DHT22;59073;51.994;4.448;2023-05-23T11:49:45;15.18;65.38
71291;DHT22;59073;51.994;4.448;2023-05-23T11:52:11;14.99;65.01
71291;DHT22;59073;51.994;4.448;2023-05-23T11:54:39;15.43;64.09
71291;DHT22;59073;51.994;4.448;2023-05-23T11:57:06;15.47;62.97
71291;DHT22;59073;51.994;4.448;2023-05-23T11:59:33;15.70;61.43
71291;DHT22;59073;51.994;4.448;2023-05-23T12:01:58;16.00;64.61
71291;DHT22;59073;51.994;4.448;2023-05-23T12:04:25;15.62;60.72
71291;DHT22;59073;51.994;4.448;2023-05-23T12:06:51;15.90;61.09
71291;DHT22;59073;51.994;4.448;2023-05-23T12:09:16;15.87;63.01
71291;DHT22;59073;51.994;4.448;2023-05-23T12:11:43;15.04;62.65
71291;DHT22;59073;51.994;4.448;2023-05-23T12:14:14;14.85;63.96
71291;DHT22;59073;51.994;4.448;2023-05-23T12:16:44;14.95;66.04
71291;DHT22;59073;51.994;4.448;2023-05-23T12:19:11;15.09;68.59
71291;DHT22;59073;51.994;4.448;2023-05-23T12:21:41;15.06;65.78
71291;DHT22;59073;51.994;4.448;2023-05-23T12:24:18;15.34;65.32
71291;DHT22;59073;51.994;4.448;2023-05-23T12:26:58;15.40;66.62
71291;DHT22;59073;51.994;4.448;2023-05-23T12:29:32;15.20;66.18
71291;DHT22;59073;51.994;4.448;2023-05-23T12:31:58;15.40;63.30
71291;DHT22;59073;51.994;4.448;2023-05-23T12:34:24;15.06;62.80
71291;DHT22;59073;51.994;4.448;2023-05-23T12:36:57;15.12;62.72
71291;DHT22;59073;51.994;4.448;2023-05-23T12:39:29;15.27;63.27
71291;DHT22;59073;51.994;4.448;2023-05-23T12:42:06;14.64;61.61
71291;DHT22;59073;51.994;4.448;2023-05-23T12:44:32;14.42;61.89
71291;DHT22;59073;51.994;4.448;2023-05-23T12:46:58;14.59;63.36
71291;DHT22;59073;51.994;4.448;2023-05-23T12:49:23;14.83;63.82
71291;DHT22;59073;51.994;4.448;2023-05-23T12:51:49;14.82;62.99
71291;DHT22;59073;51.994;4.448;2023-05-23T12:54:14;14.96;62.75
71291;DHT22;59073;51.994;4.448;2023-05-23T12:56:39;15.03;62.84
71291;DHT22;59073;51.994;4.448;2023-05-23T12:59:05;14.92;63.05
71291;DHT22;59073;51.994;4.448;2023-05-23T13:01:31;14.99;63.94
71291;DHT22;59073;51.994;4.448;2023-05-23T13:03:58;15.18;63.54
71291;DHT22;59073;51.994;4.448;2023-05-23T13:06:24;15.02;61.36
71291;DHT22;59073;51.994;4.448;2023-05-23T13:08:49;14.99;61.78
71291;DHT22;59073;51.994;4.448;2023-05-23T13:11:16;14.90;62.19
71291;DHT22;59073;51.994;4.448;2023-05-23T13:13:41;14.64;60.35
71291;DHT22;59073;51.994;4.448;2023-05-23T13:16:07;14.90;60.43
71291;DHT22;59073;51.994;4.448;2023-05-23T13:18:33;14.90;62.01
71291;DHT22;59073;51.994;4.448;2023-05-23T13:20:59;15.13;62.01
71291;DHT22;59073;51.994;4.448;2023-05-23T13:23:24;15.19;64.16
71291;DHT22;59073;51.994;4.448;2023-05-23T13:25:50;15.53;61.73
71291;DHT22;59073;51.994;4.448;2023-05-23T13:28:16;15.06;59.95
71291;DHT22;59073;51.994;4.448;2023-05-23T13:30:41;14.83;62.45
71291;DHT22;59073;51.994;4.448;2023-05-23T13:33:07;14.75;61.54
71291;DHT22;59073;51.994;4.448;2023-05-23T13:35:32;14.92;61.90
71291;DHT22;59073;51.994;4.448;2023-05-23T13:37:57;14.68;60.50
71291;DHT22;59073;51.994;4.448;2023-05-23T13:40:23;14.93;61.49
71291;DHT22;59073;51.994;4.448;2023-05-23T13:42:49;14.59;62.79
71291;DHT22;59073;51.994;4.448;2023-05-23T13:45:15;15.03;63.12
71291;DHT22;59073;51.994;4.448;2023-05-23T13:47:42;14.55;60.39
71291;DHT22;59073;51.994;4.448;2023-05-23T13:50:08;14.89;62.94
71291;DHT22;59073;51.994;4.448;2023-05-23T13:52:34;14.78;60.52
71291;DHT22;59073;51.994;4.448;2023-05-23T13:55:00;14.64;61.48
71291;DHT22;59073;51.994;4.448;2023-05-23T13:57:26;14.99;59.51
71291;DHT22;59073;51.994;4.448;2023-05-23T13:59:52;14.83;58.86
71291;DHT22;59073;51.994;4.448;2023-05-23T14:02:17;14.89;61.06
71291;DHT22;59073;51.994;4.448;2023-05-23T14:04:43;15.16;59.50
71291;DHT22;59073;51.994;4.448;2023-05-23T14:07:08;15.03;60.18
71291;DHT22;59073;51.994;4.448;2023-05-23T14:09:33;14.59;58.97
71291;DHT22;59073;51.994;4.448;2023-05-23T14:11:59;14.89;59.13
71291;DHT22;59073;51.994;4.448;2023-05-23T14:14:24;14.90;61.58
71291;DHT22;59073;51.994;4.448;2023-05-23T14:16:51;14.83;62.67
71291;DHT22;59073;51.994;4.448;2023-05-23T14:19:17;14.86;63.29
71291;DHT22;59073;51.994;4.448;2023-05-23T14:21:43;14.82;59.20
71291;DHT22;59073;51.994;4.448;2023-05-23T14:24:09;14.57;59.64
71291;DHT22;59073;51.994;4.448;2023-05-23T14:26:34;14.42;61.52
71291;DHT22;59073;51.994;4.448;2023-05-23T14:29:01;14.88;61.34
71291;DHT22;59073;51.994;4.448;2023-05-23T14:31:26;14.69;60.82
71291;DHT22;59073;51.994;4.448;2023-05-23T14:33:52;14.65;60.22
71291;DHT22;59073;51.994;4.448;2023-05-23T14:36:17;14.64;60.18
71291;DHT22;59073;51.994;4.448;2023-05-23T14:38:43;14.78;61.54
71291;DHT22;59073;51.994;4.448;2023-05-23T14:41:13;14.65;61.21
71291;DHT22;59073;51.994;4.448;2023-05-23T14:43:38;14.54;61.47
71291;DHT22;59073;51.994;4.448;2023-05-23T14:46:04;14.54;63.45
71291;DHT22;59073;51.994;4.448;2023-05-23T14:48:30;14.58;61.16
71291;DHT22;59073;51.994;4.448;2023-05-23T14:50:56;14.65;64.45
71291;DHT22;59073;51.994;4.448;2023-05-23T14:53:26;14.78;62.55
71291;DHT22;59073;51.994;4.448;2023-05-23T14:55:51;14.51;61.35
71291;DHT22;59073;51.994;4.448;2023-05-23T14:58:17;14.61;60.89
71291;DHT22;59073;51.994;4.448;2023-05-23T15:00:42;14.58;63.57
71291;DHT22;59073;51.994;4.448;2023-05-23T15:03:11;14.75;60.70
71291;DHT22;59073;51.994;4.448;2023-05-23T15:05:37;14.59;62.58
71291;DHT22;59073;51.994;4.448;2023-05-23T15:08:02;14.58;61.41
71291;DHT22;59073;51.994;4.448;2023-05-23T15:10:28;14.18;61.91
71291;DHT22;59073;51.994;4.448;2023-05-23T15:12:53;14.01;62.62
71291;DHT22;59073;51.994;4.448;2023-05-23T15:15:19;14.65;62.40
71291;DHT22;59073;51.994;4.448;2023-05-23T15:17:48;14.46;60.77
71291;DHT22;59073;51.994;4.448;2023-05-23T15:20:13;14.67;63.30
71291;DHT22;59073;51.994;4.448;2023-05-23T15:22:39;14.72;61.76
71291;DHT22;59073;51.994;4.448;2023-05-23T15:25:06;14.25;63.97
71291;DHT22;59073;51.994;4.448;2023-05-23T15:27:31;14.55;62.71
71291;DHT22;59073;51.994;4.448;2023-05-23T15:29:56;14.38;62.87
71291;DHT22;59073;51.994;4.448;2023-05-23T15:32:22;14.32;61.76
71291;DHT22;59073;51.994;4.448;2023-05-23T15:34:47;14.13;61.65
71291;DHT22;59073;51.994;4.448;2023-05-23T15:37:13;13.96;64.04
71291;DHT22;59073;51.994;4.448;2023-05-23T15:39:38;14.03;64.28
71291;DHT22;59073;51.994;4.448;2023-05-23T15:42:04;13.90;63.06
71291;DHT22;59073;51.994;4.448;2023-05-23T15:44:29;14.11;63.35
71291;DHT22;59073;51.994;4.448;2023-05-23T15:46:55;14.11;62.35